Maersk Visby — 9V8827 — position and weather

sailwx.info

Track history (hours):
 
Tides and Currents Weather Stations Pressure Air Temp Water Temp Dewpoint Dewpoint Depression Visibility Wind Speed Wind Dir Waves Ship Positions

Maersk Visby

Last reported at 2015-Apr-26 11:24 UTC. Time now 2015-May-05 10:14 UTC.
Position N 37°56' W 076°10'.
Warning: this ship's position is 8 days out of date.

Length 180 m; draft 9 m.

Type: Ship (hazmat cat A). MMSI: 564979000.

Date/timePositionNaut miles runAvg speedWind from/ knotsBaromVisibWave heightAir tempDewpointWater temp
2015-Apr-26 11:24N 37°56' W 076°10'7715.9
2015-Apr-26 06:34N 39°12' W 076°29'5 4.3
2015-Apr-26 05:28N 39°15' W 076°33'0 0.0
2015-Apr-26 04:31N 39°15' W 076°33'0 0.0
2015-Apr-26 03:25N 39°15' W 076°33'0 0.0
2015-Apr-26 02:31N 39°15' W 076°33'0 0.0
2015-Apr-26 01:31N 39°15' W 076°33'0 0.0
2015-Apr-26 00:07N 39°15' W 076°33'0 0.0
2015-Apr-25 22:31N 39°15' W 076°33'0 0.0
2015-Apr-25 21:32N 39°15' W 076°33'6 6.5
2015-Apr-25 20:33N 39°11' W 076°27'113 5.1
2015-Apr-24 22:29N 39°15' W 074°02'1314.0
2015-Apr-24 21:33N 39°28' W 073°57'1414.1
2015-Apr-24 20:33N 39°41' W 073°53'1413.9
2015-Apr-24 19:33N 39°55' W 073°51'2411.9
2015-Apr-24 17:33N 40°19' W 073°49'9 9.2
2015-Apr-24 16:33N 40°28' W 073°51'321320.8
2015-Apr-24 15:33N 45°49' W 074°02'310307.4
2015-Apr-24 14:33N 40°39' W 074°09'3 2.6
2015-Apr-24 13:31N 40°41' W 074°09'0 0.0
2015-Apr-24 12:31N 40°41' W 074°09'0 0.0
2015-Apr-24 11:28N 40°41' W 074°09'0 0.0
2015-Apr-24 10:31N 40°41' W 074°09'0 0.0
2015-Apr-24 09:31N 40°41' W 074°09'0 0.0
2015-Apr-24 08:31N 40°41' W 074°09'0 0.0
2015-Apr-24 07:31N 40°41' W 074°09'0 0.0
2015-Apr-24 05:31N 40°41' W 074°09'0 0.0
2015-Apr-24 04:31N 40°41' W 074°09'0 0.0
2015-Apr-24 03:28N 40°41' W 074°09'0 0.0
2015-Apr-24 02:31N 40°41' W 074°09'0 0.0
2015-Apr-24 01:31N 40°41' W 074°09'0 0.0
2015-Apr-24 00:31N 40°41' W 074°09'1 0.6
2015-Apr-23 23:33N 40°41' W 074°09'3 3.1
2015-Apr-23 22:34N 40°39' W 074°06'9 9.2
2015-Apr-23 21:33N 40°31' W 073°59'1010.2
2015-Apr-23 20:33N 40°27' W 073°47'5 1.8
2015-Apr-23 17:31N 40°29' W 073°40'0 0.0
2015-Apr-23 16:16N 40°29' W 073°40'0 0.0
2015-Apr-23 15:07N 40°29' W 073°40'0 0.0
2015-Apr-23 12:04N 40°29' W 073°40'0 0.0
2015-Apr-23 10:16N 40°29' W 073°40'0 0.0
2015-Apr-23 04:04N 40°29' W 073°40'0 0.0
2015-Apr-23 00:31N 40°29' W 073°40'0 0.0
2015-Apr-22 23:28N 40°29' W 073°40'0 0.0
2015-Apr-22 22:25N 40°29' W 073°40'0 0.0
2015-Apr-22 21:31N 40°29' W 073°40'0 0.1
2015-Apr-22 20:31N 40°29' W 073°40'0 0.1
2015-Apr-22 19:07N 40°29' W 073°40'0 0.0
2015-Apr-22 18:22N 40°29' W 073°40'0 0.0
2015-Apr-22 16:31N 40°29' W 073°40'0 0.0
2015-Apr-22 15:31N 40°29' W 073°40'0 0.1
2015-Apr-22 12:33N 40°29' W 073°40'6 6.2
2015-Apr-22 11:33N 40°28' W 073°32'10 9.6
2015-Apr-22 10:33N 40°29' W 073°20'9 9.4
2015-Apr-22 09:34N 40°30' W 073°07'9 9.3
2015-Apr-22 08:33N 40°30' W 072°55'9 8.9
2015-Apr-22 07:33N 40°25' W 072°45'18 9.2
2015-Apr-22 05:33N 40°13' W 072°28'18 9.2
2015-Apr-22 03:33N 40°01' W 072°10'9 9.3
2015-Apr-22 02:33N 39°54' W 072°01'9 9.0
2015-Apr-22 01:33N 39°48' W 071°52'9 9.2
2015-Apr-22 00:33N 39°41' W 071°44'9 9.4
2015-Apr-21 23:33N 39°35' W 071°35'9 9.3
2015-Apr-21 22:33N 39°29' W 071°26'9 8.3
2015-Apr-21 21:31N 39°23' W 071°18'7 7.1
2015-Apr-21 20:29N 39°18' W 071°11'6 6.8
2015-Apr-21 19:33N 39°14' W 071°05'  
Track history (hours):
 
Tides and Currents Weather Stations Pressure Air Temp Water Temp Dewpoint Dewpoint Depression Visibility Wind Speed Wind Dir Waves Ship Positions

Maersk Visby

Last reported at 2015-Apr-26 11:24 UTC. Time now 2015-May-05 10:14 UTC.
Position N 37°56' W 076°10'.
Warning: this ship's position is 8 days out of date.

Length 180 m; draft 9 m.

Type: Ship (hazmat cat A). MMSI: 564979000.

Date/timePositionNaut miles runAvg speedWind from/ knotsBaromVisibWave heightAir tempDewpointWater temp
2015-Apr-26 11:24N 37°56' W 076°10'7715.9
2015-Apr-26 06:34N 39°12' W 076°29'5 4.3
2015-Apr-26 05:28N 39°15' W 076°33'0 0.0
2015-Apr-26 04:31N 39°15' W 076°33'0 0.0
2015-Apr-26 03:25N 39°15' W 076°33'0 0.0
2015-Apr-26 02:31N 39°15' W 076°33'0 0.0
2015-Apr-26 01:31N 39°15' W 076°33'0 0.0
2015-Apr-26 00:07N 39°15' W 076°33'0 0.0
2015-Apr-25 22:31N 39°15' W 076°33'0 0.0
2015-Apr-25 21:32N 39°15' W 076°33'6 6.5
2015-Apr-25 20:33N 39°11' W 076°27'113 5.1
2015-Apr-24 22:29N 39°15' W 074°02'1314.0
2015-Apr-24 21:33N 39°28' W 073°57'1414.1
2015-Apr-24 20:33N 39°41' W 073°53'1413.9
2015-Apr-24 19:33N 39°55' W 073°51'2411.9
2015-Apr-24 17:33N 40°19' W 073°49'9 9.2
2015-Apr-24 16:33N 40°28' W 073°51'321320.8
2015-Apr-24 15:33N 45°49' W 074°02'310307.4
2015-Apr-24 14:33N 40°39' W 074°09'3 2.6
2015-Apr-24 13:31N 40°41' W 074°09'0 0.0
2015-Apr-24 12:31N 40°41' W 074°09'0 0.0
2015-Apr-24 11:28N 40°41' W 074°09'0 0.0
2015-Apr-24 10:31N 40°41' W 074°09'0 0.0
2015-Apr-24 09:31N 40°41' W 074°09'0 0.0
2015-Apr-24 08:31N 40°41' W 074°09'0 0.0
2015-Apr-24 07:31N 40°41' W 074°09'0 0.0
2015-Apr-24 05:31N 40°41' W 074°09'0 0.0
2015-Apr-24 04:31N 40°41' W 074°09'0 0.0
2015-Apr-24 03:28N 40°41' W 074°09'0 0.0
2015-Apr-24 02:31N 40°41' W 074°09'0 0.0
2015-Apr-24 01:31N 40°41' W 074°09'0 0.0
2015-Apr-24 00:31N 40°41' W 074°09'1 0.6
2015-Apr-23 23:33N 40°41' W 074°09'3 3.1
2015-Apr-23 22:34N 40°39' W 074°06'9 9.2
2015-Apr-23 21:33N 40°31' W 073°59'1010.2
2015-Apr-23 20:33N 40°27' W 073°47'5 1.8
2015-Apr-23 17:31N 40°29' W 073°40'0 0.0
2015-Apr-23 16:16N 40°29' W 073°40'0 0.0
2015-Apr-23 15:07N 40°29' W 073°40'0 0.0
2015-Apr-23 12:04N 40°29' W 073°40'0 0.0
2015-Apr-23 10:16N 40°29' W 073°40'0 0.0
2015-Apr-23 04:04N 40°29' W 073°40'0 0.0
2015-Apr-23 00:31N 40°29' W 073°40'0 0.0
2015-Apr-22 23:28N 40°29' W 073°40'0 0.0
2015-Apr-22 22:25N 40°29' W 073°40'0 0.0
2015-Apr-22 21:31N 40°29' W 073°40'0 0.1
2015-Apr-22 20:31N 40°29' W 073°40'0 0.1
2015-Apr-22 19:07N 40°29' W 073°40'0 0.0
2015-Apr-22 18:22N 40°29' W 073°40'0 0.0
2015-Apr-22 16:31N 40°29' W 073°40'0 0.0
2015-Apr-22 15:31N 40°29' W 073°40'0 0.1
2015-Apr-22 12:33N 40°29' W 073°40'6 6.2
2015-Apr-22 11:33N 40°28' W 073°32'10 9.6
2015-Apr-22 10:33N 40°29' W 073°20'9 9.4
2015-Apr-22 09:34N 40°30' W 073°07'9 9.3
2015-Apr-22 08:33N 40°30' W 072°55'9 8.9
2015-Apr-22 07:33N 40°25' W 072°45'18 9.2
2015-Apr-22 05:33N 40°13' W 072°28'18 9.2
2015-Apr-22 03:33N 40°01' W 072°10'9 9.3
2015-Apr-22 02:33N 39°54' W 072°01'9 9.0
2015-Apr-22 01:33N 39°48' W 071°52'9 9.2
2015-Apr-22 00:33N 39°41' W 071°44'9 9.4
2015-Apr-21 23:33N 39°35' W 071°35'9 9.3
2015-Apr-21 22:33N 39°29' W 071°26'9 8.3
2015-Apr-21 21:31N 39°23' W 071°18'7 7.1
2015-Apr-21 20:29N 39°18' W 071°11'6 6.8
2015-Apr-21 19:33N 39°14' W 071°05'  

Dump ship's entire track history